Snohomish County (Paine Field) Airport
KPAE : now visible

Airfield :











YOU CAN JOIN US ON...

 
LOGIN :

Register | Disclaimer

   EN    FR    IT 

 









Legend :    VFR   Marginal VFR   IFR   Intensive IFR   Very Intensive IFR
Visi :
Ceiling :
>= 8 km
>= 3000ft
5 to 8 km
1000 to 3000 ft
1500m to 5 km
500 to 1000 ft
800 to 1500m
200 to 500 ft
< 800m
< 200 ft
Symbols :   Thunderstorms  Fog  Heavy snow  Heavy precipitations  Wind > 20 kt







- Airport Elevation : 606 ft
- IATA code : PAE


KPAE - Snohomish County (Paine Field)

CURRENT METAR :
  • 181107Z AUTO 00000KT 10SM FEW004 OVC026 13/12 A2979 RMK AO2 T01280117

EXPIRED METARs :
  • 181053Z AUTO 10003KT 10SM BKN025 BKN043 OVC085 13/12 A2979 RMK AO2 RAB00E43 SLP088 P0006 T01280117
  • 180953Z AUTO 15003KT 10SM FEW049 BKN070 OVC090 13/12 A2978 RMK AO2 RAE49 SLP084 P0003 T01280117
  • 180853Z AUTO 17003KT 9SM -RA FEW048 BKN070 OVC090 13/11 A2978 RMK AO2 RAB47 SLP083 P0001 60001 T01280111 53004

TAF KPAE
Valid from the 18 at 06:00 until the 19 at 06:00 UTC


180525Z 1806/1906 14004KT P6SM SCT015 BKN060
FM181000 12003KT P6SM BKN010 OVC030
FM182100 33005KT P6SM FEW035 BKN050
FM190100 VRB03KT P6SM SCT050
No reported NOTAMs for that airfield.



MET'MAP, your aeronautical weather chart ! - Copyright ORBIFLY December 2007 - Disclaimer

ORBIFLY MET'MAP TEAM :

Programming & Development : Alexandra Zaïnal
Concept & Development : Baudouin d'Aumeries
Co-Development & Prog : Marc-Olivier Méhu
Technical & hardware support : Manuel Goepfert

Contact : metmap@orbifly.com




SOURCES & CREDITS :

   NOAA       Earth
Advisory